Time;durP1;ratioP1;P1;durP2;ratioP2;P2;SDS_P1;SDS_P2;PMS_P1;PMS_P2;Temp;Humidity;BMP_temperature;BMP_pressure;BME280_temperature;BME280_humidity;BME280_pressure;Samples;Min_cycle;Max_cycle;Signal;HPM_P1;HPM_P2
2022/12/19 00:01:43;;;;;;;27.43;15.00;;;-3.10;99.90;;;;;;4979424;28;20328;-62
2022/12/19 00:04:14;;;;;;;28.53;15.90;;;-2.90;99.90;;;;;;4979067;28;20228;-60
2022/12/19 00:06:40;;;;;;;26.80;15.87;;;-2.80;99.90;;;;;;4975462;28;20208;-60
2022/12/19 00:09:05;;;;;;;21.47;12.63;;;-2.80;99.90;;;;;;4978962;28;20204;-61
2022/12/19 00:11:32;;;;;;;23.13;15.27;;;-2.80;99.90;;;;;;4979162;28;20205;-61
2022/12/19 00:13:58;;;;;;;23.97;14.20;;;-2.80;99.90;;;;;;4979370;28;20196;-62
2022/12/19 00:16:27;;;;;;;25.37;15.67;;;-2.80;99.90;;;;;;4978951;28;20244;-61
2022/12/19 00:18:54;;;;;;;20.10;13.67;;;-2.90;99.90;;;;;;4974547;28;20446;-61
2022/12/19 00:21:22;;;;;;;26.17;14.03;;;-2.80;99.90;;;;;;4979151;28;20201;-60
2022/12/19 00:23:49;;;;;;;29.90;14.03;;;-2.80;99.90;;;;;;4979474;28;20363;-60
2022/12/19 00:26:20;;;;;;;25.70;13.77;;;-2.80;99.90;;;;;;4979270;28;20205;-60
2022/12/19 00:28:51;;;;;;;26.70;14.60;;;-2.80;99.90;;;;;;4978945;28;20288;-61
2022/12/19 00:31:18;;;;;;;23.50;14.07;;;-2.80;99.90;;;;;;4979120;28;20203;-60
2022/12/19 00:33:43;;;;;;;23.20;14.67;;;-2.80;99.90;;;;;;4978945;28;20209;-61
2022/12/19 00:36:12;;;;;;;19.97;13.50;;;-2.80;99.90;;;;;;4978418;28;20204;-61
2022/12/19 00:38:38;;;;;;;24.90;14.63;;;-2.90;99.90;;;;;;4973599;28;20212;-66
2022/12/19 00:41:15;;;;;;;21.67;13.33;;;-2.80;99.90;;;;;;4978152;28;20197;-61
2022/12/19 00:43:42;;;;;;;26.03;14.17;;;-2.80;99.90;;;;;;4978806;28;20646;-62
2022/12/19 00:46:11;;;;;;;23.10;12.87;;;-2.80;99.90;;;;;;4978472;28;20200;-62
2022/12/19 00:48:36;;;;;;;23.07;13.13;;;-2.80;99.90;;;;;;4978323;28;20284;-63
2022/12/19 00:51:04;;;;;;;19.37;12.90;;;-2.80;99.90;;;;;;4978889;28;20196;-61
2022/12/19 00:53:30;;;;;;;21.43;13.67;;;-2.80;99.90;;;;;;4978459;28;20213;-60
2022/12/19 00:55:56;;;;;;;23.63;11.97;;;-2.70;99.90;;;;;;4978270;28;20233;-59
2022/12/19 00:58:22;;;;;;;25.07;13.43;;;-2.70;99.90;;;;;;4977852;28;20201;-60
2022/12/19 01:00:48;;;;;;;22.00;13.43;;;-2.80;99.90;;;;;;4978602;28;20288;-60
2022/12/19 01:03:14;;;;;;;22.43;13.87;;;-2.80;99.90;;;;;;4978081;28;20295;-62
2022/12/19 01:05:39;;;;;;;24.03;12.43;;;-2.70;99.90;;;;;;4978360;28;20241;-61
2022/12/19 01:08:04;;;;;;;23.67;12.73;;;-2.70;99.90;;;;;;4977731;28;20285;-61
2022/12/19 01:10:30;;;;;;;25.03;12.93;;;-2.70;99.90;;;;;;4976411;28;20205;-61
2022/12/19 01:12:55;;;;;;;24.50;13.00;;;-2.70;99.90;;;;;;4977765;28;20263;-59
2022/12/19 01:15:21;;;;;;;22.30;13.13;;;-2.70;99.90;;;;;;4978310;28;20209;-60
2022/12/19 01:17:47;;;;;;;24.97;13.53;;;-2.80;99.90;;;;;;4978730;28;20667;-60
2022/12/19 01:20:16;;;;;;;22.10;11.97;;;-2.80;99.90;;;;;;4977801;28;20205;-60
2022/12/19 01:22:43;;;;;;;22.23;12.70;;;-2.90;99.90;;;;;;4975004;28;20403;-60
2022/12/19 01:25:08;;;;;;;22.33;12.90;;;-2.90;99.90;;;;;;4978339;28;20669;-60
2022/12/19 01:27:34;;;;;;;24.03;13.63;;;-2.90;99.90;;;;;;4978035;28;20304;-60
2022/12/19 01:30:00;;;;;;;22.17;13.97;;;-2.90;99.90;;;;;;4978067;28;20207;-59
2022/12/19 01:32:25;;;;;;;20.23;13.57;;;-2.80;99.90;;;;;;4976276;28;20200;-60
2022/12/19 01:34:51;;;;;;;19.10;12.20;;;-2.80;99.90;;;;;;4977874;28;20950;-59
2022/12/19 01:37:17;;;;;;;19.13;12.03;;;-2.80;99.90;;;;;;4978162;28;20222;-59
2022/12/19 01:39:42;;;;;;;20.13;12.43;;;-2.70;99.90;;;;;;4978145;28;20201;-59
2022/12/19 01:42:13;;;;;;;21.10;12.03;;;-2.70;99.90;;;;;;4977847;28;20196;-60
2022/12/19 01:44:39;;;;;;;17.17;10.80;;;-2.80;99.90;;;;;;4975840;28;20264;-59
2022/12/19 01:47:11;;;;;;;19.00;13.97;;;-2.80;99.90;;;;;;4977641;28;20200;-60
2022/12/19 01:49:37;;;;;;;21.27;12.07;;;-2.70;99.90;;;;;;4977483;28;20672;-59
2022/12/19 01:52:06;;;;;;;20.80;11.97;;;-2.70;99.90;;;;;;4976577;28;20208;-60
2022/12/19 01:54:38;;;;;;;18.20;12.30;;;-2.70;99.90;;;;;;4976728;28;20686;-60
2022/12/19 01:57:10;;;;;;;21.53;12.73;;;-2.70;99.90;;;;;;4977472;28;20205;-59
2022/12/19 01:59:55;;;;;;;21.30;13.53;;;-2.60;99.90;;;;;;4976985;28;20205;-59
2022/12/19 02:02:23;;;;;;;21.00;12.83;;;-2.70;99.90;;;;;;4976192;28;20364;-61
2022/12/19 02:04:48;;;;;;;23.83;11.17;;;-2.60;99.90;;;;;;4976864;28;20586;-60
2022/12/19 02:07:17;;;;;;;17.03;11.47;;;-2.60;99.90;;;;;;4975487;28;20208;-59
2022/12/19 02:09:45;;;;;;;24.03;12.80;;;-2.60;99.90;;;;;;4972151;28;20189;-60
2022/12/19 02:12:11;;;;;;;20.30;12.07;;;-2.60;99.90;;;;;;4976649;28;20205;-60
2022/12/19 02:14:37;;;;;;;19.67;11.23;;;-2.60;99.90;;;;;;4976585;28;20212;-60
2022/12/19 02:17:18;;;;;;;22.83;13.50;;;-2.70;99.90;;;;;;4975438;28;20205;-61
2022/12/19 02:19:47;;;;;;;20.53;12.77;;;-2.70;99.90;;;;;;4976666;28;20196;-59
2022/12/19 02:22:38;;;;;;;20.93;11.70;;;-2.70;99.90;;;;;;4976468;28;20204;-60
2022/12/19 02:25:32;;;;;;;20.50;12.03;;;-2.70;99.90;;;;;;4975117;28;20221;-60
2022/12/19 02:28:31;;;;;;;24.50;13.23;;;-2.70;99.90;;;;;;4975214;28;20774;-59
2022/12/19 02:31:29;;;;;;;22.37;12.20;;;-2.70;99.90;;;;;;4975494;28;20194;-60
2022/12/19 02:34:24;;;;;;;20.13;11.97;;;-2.70;99.90;;;;;;4969712;28;20217;-60
2022/12/19 02:36:54;;;;;;;23.33;13.60;;;-2.80;99.90;;;;;;4974250;28;20238;-61
2022/12/19 02:39:36;;;;;;;20.27;12.40;;;-2.70;99.90;;;;;;4976392;28;20196;-60
2022/12/19 02:42:06;;;;;;;24.57;12.97;;;-2.70;99.90;;;;;;4973981;28;20690;-60
2022/12/19 02:44:46;;;;;;;20.17;13.00;;;-2.80;99.90;;;;;;4976482;28;20235;-60
2022/12/19 02:47:13;;;;;;;25.73;14.77;;;-2.80;99.90;;;;;;4976541;28;20228;-60
2022/12/19 02:49:38;;;;;;;19.07;13.00;;;-2.90;99.90;;;;;;4974818;28;20216;-61
2022/12/19 02:52:19;;;;;;;18.97;11.83;;;-2.90;99.90;;;;;;4976451;28;20496;-60
2022/12/19 02:54:47;;;;;;;19.77;12.73;;;-2.80;99.90;;;;;;4974990;28;20193;-61
2022/12/19 02:57:32;;;;;;;22.87;14.10;;;-2.70;99.90;;;;;;4974386;28;20291;-60
2022/12/19 03:00:26;;;;;;;22.10;13.67;;;-2.70;99.90;;;;;;4976522;28;20283;-61
2022/12/19 03:03:15;;;;;;;24.57;13.43;;;-2.60;99.90;;;;;;4974309;28;20204;-61
2022/12/19 03:05:55;;;;;;;19.90;13.37;;;-2.60;99.90;;;;;;4974161;28;20304;-61
2022/12/19 03:08:42;;;;;;;23.57;13.67;;;-2.60;99.90;;;;;;4975816;28;20251;-60
2022/12/19 03:11:12;;;;;;;28.43;14.50;;;-2.50;99.90;;;;;;4974236;28;20957;-60
2022/12/19 03:13:44;;;;;;;21.47;12.80;;;-2.50;99.90;;;;;;4975961;28;20566;-61
2022/12/19 03:16:11;;;;;;;23.03;13.83;;;-2.50;99.90;;;;;;4975873;28;20221;-60
2022/12/19 03:18:37;;;;;;;25.67;14.30;;;-2.60;99.90;;;;;;4976102;28;20193;-61
2022/12/19 03:21:35;;;;;;;26.57;14.33;;;-2.60;99.90;;;;;;4976081;28;20227;-60
2022/12/19 03:24:03;;;;;;;24.23;14.73;;;-2.50;99.90;;;;;;4976028;28;20218;-58
2022/12/19 03:26:35;;;;;;;27.73;14.73;;;-2.50;99.90;;;;;;4975939;28;20208;-59
2022/12/19 03:29:08;;;;;;;27.27;14.30;;;-2.50;99.90;;;;;;4976116;28;20663;-60
2022/12/19 03:31:36;;;;;;;24.50;14.40;;;-2.50;99.90;;;;;;4977703;28;20208;-60
2022/12/19 03:34:22;;;;;;;22.73;14.93;;;-2.50;99.90;;;;;;4976690;28;20228;-61
2022/12/19 03:36:54;;;;;;;21.10;14.07;;;-2.50;99.90;;;;;;4972532;28;20226;-58
2022/12/19 03:39:23;;;;;;;23.87;15.17;;;-2.50;99.90;;;;;;4975340;28;20228;-62
2022/12/19 03:44:38;;;;;;;24.47;14.83;;;-2.40;99.90;;;;;;4975986;28;20240;-56
2022/12/19 03:47:11;;;;;;;23.90;15.20;;;-2.50;99.90;;;;;;4974106;28;20204;-56
2022/12/19 03:49:37;;;;;;;28.03;16.10;;;-2.50;99.90;;;;;;4975996;28;20316;-56
2022/12/19 03:52:18;;;;;;;25.37;14.53;;;-2.50;99.90;;;;;;4976297;28;20288;-57
2022/12/19 03:54:54;;;;;;;28.63;15.93;;;-2.50;99.90;;;;;;4972695;28;20718;-57
2022/12/19 03:57:29;;;;;;;28.40;15.90;;;-2.60;99.90;;;;;;4975987;28;20945;-57
2022/12/19 04:00:03;;;;;;;27.53;15.17;;;-2.50;99.90;;;;;;4973616;28;20201;-57
2022/12/19 04:02:33;;;;;;;30.20;15.63;;;-2.50;99.90;;;;;;4975557;28;20220;-56
2022/12/19 04:05:03;;;;;;;26.73;15.57;;;-2.60;99.90;;;;;;4975526;28;20628;-56
2022/12/19 04:07:29;;;;;;;28.57;16.37;;;-2.50;99.90;;;;;;4972502;28;20214;-56
2022/12/19 04:09:58;;;;;;;26.60;14.57;;;-2.50;99.90;;;;;;4975734;28;20292;-57
2022/12/19 04:12:30;;;;;;;28.47;16.67;;;-2.50;99.90;;;;;;4975423;28;20266;-57
2022/12/19 04:14:55;;;;;;;28.13;16.37;;;-2.50;99.90;;;;;;4977124;28;20243;-57
2022/12/19 04:17:39;;;;;;;25.57;14.83;;;-2.50;99.90;;;;;;4977696;28;20228;-57
2022/12/19 04:20:09;;;;;;;27.27;15.47;;;-2.50;99.90;;;;;;4979445;28;20204;-57
2022/12/19 04:22:37;;;;;;;25.60;14.33;;;-2.50;99.90;;;;;;4977495;28;20207;-56
2022/12/19 04:25:08;;;;;;;27.57;16.17;;;-2.60;99.90;;;;;;4979169;28;20213;-57
2022/12/19 04:27:35;;;;;;;26.13;15.57;;;-2.60;99.90;;;;;;4978883;28;20192;-56
2022/12/19 04:30:03;;;;;;;28.27;16.03;;;-2.60;99.90;;;;;;4978963;28;20205;-56
2022/12/19 04:32:31;;;;;;;28.47;16.67;;;-2.60;99.90;;;;;;4974147;28;20256;-57
2022/12/19 04:34:57;;;;;;;28.80;16.43;;;-2.60;99.90;;;;;;4978676;28;20212;-56
2022/12/19 04:37:24;;;;;;;28.37;16.53;;;-2.60;99.90;;;;;;4978596;28;20236;-55
2022/12/19 04:39:50;;;;;;;28.23;17.17;;;-2.60;99.90;;;;;;4979034;28;20205;-56
2022/12/19 04:42:15;;;;;;;28.03;15.83;;;-2.60;99.90;;;;;;4979323;28;20206;-55
2022/12/19 04:44:41;;;;;;;25.90;14.90;;;-2.70;99.90;;;;;;4976734;28;20367;-56
2022/12/19 04:47:06;;;;;;;32.50;16.73;;;-2.70;99.90;;;;;;4978465;28;20212;-57
2022/12/19 04:49:32;;;;;;;30.50;15.73;;;-2.70;99.90;;;;;;4978809;28;21241;-56
2022/12/19 04:51:57;;;;;;;27.33;14.77;;;-2.70;99.90;;;;;;4978551;28;20250;-57
2022/12/19 04:54:23;;;;;;;28.87;16.73;;;-2.70;99.90;;;;;;4978515;28;20192;-56
2022/12/19 04:56:48;;;;;;;28.37;15.83;;;-2.70;99.90;;;;;;4976844;28;20536;-57
2022/12/19 04:59:14;;;;;;;27.50;15.87;;;-2.70;99.90;;;;;;4978671;28;20208;-56
2022/12/19 05:01:39;;;;;;;25.20;15.17;;;-2.70;99.90;;;;;;4978058;28;20193;-57
2022/12/19 05:04:05;;;;;;;26.27;16.13;;;-2.70;99.90;;;;;;4978415;28;20262;-56
2022/12/19 05:06:30;;;;;;;25.97;15.20;;;-2.80;99.90;;;;;;4978258;28;20969;-57
2022/12/19 05:08:56;;;;;;;34.73;18.80;;;-2.80;99.90;;;;;;4978548;28;20201;-57
2022/12/19 05:11:21;;;;;;;27.53;14.70;;;-2.90;99.90;;;;;;4976015;28;20211;-58
2022/12/19 05:13:48;;;;;;;33.83;17.07;;;-2.90;99.90;;;;;;4978488;28;20198;-57
2022/12/19 05:16:14;;;;;;;26.20;15.73;;;-2.90;99.90;;;;;;4978083;28;20213;-57
2022/12/19 05:18:40;;;;;;;27.97;16.73;;;-2.90;99.90;;;;;;4978552;28;20457;-56
2022/12/19 05:21:06;;;;;;;26.57;15.63;;;-2.90;99.90;;;;;;4978198;28;20296;-58
2022/12/19 05:23:31;;;;;;;29.00;17.73;;;-2.90;99.90;;;;;;4977077;28;20303;-57
2022/12/19 05:25:58;;;;;;;30.73;17.63;;;-2.90;99.90;;;;;;4977949;28;20243;-57
2022/12/19 05:28:23;;;;;;;25.10;15.67;;;-2.90;99.90;;;;;;4977902;28;20220;-57
2022/12/19 05:30:49;;;;;;;30.10;17.03;;;-2.90;99.90;;;;;;4977630;28;20663;-56
2022/12/19 05:33:14;;;;;;;27.27;17.23;;;-2.90;99.90;;;;;;4978070;28;20212;-57
2022/12/19 05:35:40;;;;;;;31.70;17.67;;;-2.80;99.90;;;;;;4977760;28;20977;-57
2022/12/19 05:38:06;;;;;;;29.30;16.57;;;-2.80;99.90;;;;;;4975809;28;20248;-56
2022/12/19 05:40:32;;;;;;;32.20;17.03;;;-2.70;99.90;;;;;;4977611;28;20214;-56
2022/12/19 05:42:57;;;;;;;28.67;16.37;;;-2.70;99.90;;;;;;4977603;28;20683;-56
2022/12/19 05:45:23;;;;;;;28.43;16.57;;;-2.60;99.90;;;;;;4977318;28;20231;-56
2022/12/19 05:47:48;;;;;;;28.77;15.10;;;-2.50;99.90;;;;;;4977494;28;20219;-56
2022/12/19 05:50:16;;;;;;;27.33;15.40;;;-2.50;99.90;;;;;;4977662;28;20271;-56
2022/12/19 05:52:41;;;;;;;24.30;15.90;;;-2.40;99.90;;;;;;4976973;28;20208;-55
2022/12/19 05:55:07;;;;;;;33.43;17.47;;;-2.40;99.90;;;;;;4977530;28;20632;-56
2022/12/19 05:57:33;;;;;;;29.17;17.33;;;-2.30;99.90;;;;;;4977186;28;20208;-57
2022/12/19 05:59:59;;;;;;;28.90;16.50;;;-2.30;99.90;;;;;;4977216;28;20205;-57
2022/12/19 06:02:24;;;;;;;24.40;16.30;;;-2.30;99.90;;;;;;4974880;28;20280;-57
2022/12/19 06:04:50;;;;;;;25.43;15.43;;;-2.20;99.90;;;;;;4976727;28;20228;-56
2022/12/19 06:07:16;;;;;;;26.47;17.00;;;-2.20;99.90;;;;;;4977179;28;20248;-57
2022/12/19 06:09:41;;;;;;;26.50;16.33;;;-2.10;99.90;;;;;;4976271;28;20299;-56
2022/12/19 06:12:07;;;;;;;27.30;15.70;;;-2.10;99.90;;;;;;4977103;28;20216;-55
2022/12/19 06:14:32;;;;;;;26.50;16.83;;;-2.10;99.90;;;;;;4976735;28;20263;-56
2022/12/19 06:16:58;;;;;;;28.83;16.07;;;-2.10;99.90;;;;;;4974921;28;20265;-56
2022/12/19 06:19:23;;;;;;;26.67;16.63;;;-2.10;99.90;;;;;;4976932;28;20200;-57
2022/12/19 06:21:49;;;;;;;27.17;17.20;;;-2.00;99.90;;;;;;4977304;28;20672;-57
2022/12/19 06:24:15;;;;;;;28.43;15.23;;;-2.00;99.90;;;;;;4977026;28;20212;-57
2022/12/19 06:26:41;;;;;;;27.93;15.83;;;-2.00;99.90;;;;;;4976649;28;20201;-57
2022/12/19 06:29:07;;;;;;;25.43;15.90;;;-2.00;99.90;;;;;;4976943;28;20202;-57
2022/12/19 06:31:33;;;;;;;26.53;16.03;;;-2.00;99.90;;;;;;4977028;28;20194;-57
2022/12/19 06:33:58;;;;;;;33.77;17.00;;;-1.90;99.90;;;;;;4976828;28;20217;-58
2022/12/19 06:36:26;;;;;;;30.97;16.30;;;-1.80;99.90;;;;;;4976218;28;20603;-57
2022/12/19 06:38:53;;;;;;;27.87;15.77;;;-1.80;99.90;;;;;;4975095;28;20197;-57
2022/12/19 06:44:06;;;;;;;23.20;14.53;;;-1.80;99.90;;;;;;4975402;28;20256;-57
2022/12/19 06:46:32;;;;;;;26.93;14.77;;;-1.70;99.90;;;;;;4975362;28;20422;-57
2022/12/19 06:48:58;;;;;;;26.60;14.67;;;-1.70;99.90;;;;;;4976562;28;20309;-56
2022/12/19 06:51:24;;;;;;;24.83;15.90;;;-1.70;99.90;;;;;;4976566;28;20207;-56
2022/12/19 06:53:50;;;;;;;23.20;14.73;;;-1.70;99.90;;;;;;4976340;28;20202;-57
2022/12/19 06:56:17;;;;;;;32.33;16.63;;;-1.60;99.90;;;;;;4973948;28;20210;-57
2022/12/19 06:58:45;;;;;;;27.60;15.23;;;-1.60;99.90;;;;;;4974007;28;20579;-57
2022/12/19 07:01:39;;;;;;;27.57;16.30;;;-1.70;99.90;;;;;;4972088;28;20201;-57
2022/12/19 07:04:06;;;;;;;25.90;15.23;;;-1.60;99.90;;;;;;4973898;28;20571;-55
2022/12/19 07:06:31;;;;;;;24.87;15.20;;;-1.60;99.90;;;;;;4976183;28;20694;-56
2022/12/19 07:08:57;;;;;;;23.87;15.23;;;-1.50;99.90;;;;;;4975990;28;20203;-56
2022/12/19 07:11:22;;;;;;;24.83;15.47;;;-1.60;99.90;;;;;;4974544;28;20751;-56
2022/12/19 07:13:48;;;;;;;26.50;15.40;;;-1.50;99.90;;;;;;4976577;28;20732;-56
2022/12/19 07:16:14;;;;;;;28.00;16.20;;;-1.40;99.90;;;;;;4976177;28;20198;-56
2022/12/19 07:18:40;;;;;;;27.60;16.40;;;-1.40;99.90;;;;;;4975585;28;20196;-58
2022/12/19 07:21:10;;;;;;;24.53;15.13;;;-1.40;99.90;;;;;;4975989;28;20197;-57
2022/12/19 07:23:36;;;;;;;29.53;16.00;;;-1.30;99.90;;;;;;4973776;28;20205;-57
2022/12/19 07:26:01;;;;;;;25.37;13.87;;;-1.30;99.90;;;;;;4976300;28;20625;-57
2022/12/19 07:28:27;;;;;;;27.00;15.33;;;-1.30;99.90;;;;;;4976822;28;20574;-57
2022/12/19 07:30:52;;;;;;;25.03;15.20;;;-1.20;99.90;;;;;;4974794;28;20201;-57
2022/12/19 07:33:18;;;;;;;25.23;15.17;;;-1.10;99.90;;;;;;4972208;28;20205;-57
2022/12/19 07:35:43;;;;;;;22.37;14.20;;;-1.10;99.90;;;;;;4975735;28;20232;-57
2022/12/19 07:38:08;;;;;;;26.07;15.27;;;-1.00;99.90;;;;;;4975393;28;20308;-56
2022/12/19 07:40:34;;;;;;;23.87;14.93;;;-1.00;99.90;;;;;;4975621;28;20966;-57
2022/12/19 07:43:02;;;;;;;24.27;15.50;;;-1.00;99.90;;;;;;4976021;28;20211;-57
2022/12/19 07:45:28;;;;;;;27.63;14.47;;;-0.90;99.90;;;;;;4970896;28;20718;-57
2022/12/19 07:47:53;;;;;;;22.67;14.10;;;-0.90;99.90;;;;;;4975640;28;20903;-57
2022/12/19 07:50:19;;;;;;;27.93;16.67;;;-0.80;99.90;;;;;;4979195;28;20233;-57
2022/12/19 07:52:44;;;;;;;23.80;15.17;;;-0.70;99.90;;;;;;4979187;28;20198;-56
2022/12/19 07:55:10;;;;;;;26.27;14.83;;;-0.70;99.90;;;;;;4979348;28;20722;-56
2022/12/19 07:57:35;;;;;;;24.37;14.80;;;-0.60;99.90;;;;;;4977515;28;20260;-57
2022/12/19 08:00:01;;;;;;;27.20;16.07;;;-0.60;99.90;;;;;;4979942;28;20202;-58
2022/12/19 08:02:27;;;;;;;23.40;14.73;;;-0.60;99.90;;;;;;4979005;28;20217;-60
2022/12/19 08:04:52;;;;;;;26.10;14.57;;;-0.60;99.90;;;;;;4979112;28;20229;-57
2022/12/19 08:07:18;;;;;;;26.50;15.53;;;-0.60;99.90;;;;;;4978828;28;20209;-57
2022/12/19 08:09:43;;;;;;;25.33;14.17;;;-0.60;99.90;;;;;;4976912;28;20186;-57
2022/12/19 08:12:09;;;;;;;32.93;15.43;;;-0.50;99.90;;;;;;4979032;28;20295;-57
2022/12/19 08:14:34;;;;;;;26.70;15.30;;;-0.50;99.90;;;;;;4979144;28;20206;-57
2022/12/19 08:17:00;;;;;;;23.70;14.57;;;-0.60;99.90;;;;;;4979216;28;20808;-56
2022/12/19 08:19:25;;;;;;;25.53;14.27;;;-0.50;99.90;;;;;;4979559;28;20215;-56
2022/12/19 08:21:51;;;;;;;24.13;14.07;;;-0.50;99.90;;;;;;4979189;28;20225;-55
2022/12/19 08:24:17;;;;;;;21.77;14.97;;;-0.50;99.90;;;;;;4978040;28;20315;-57
2022/12/19 08:26:42;;;;;;;26.90;14.63;;;-0.50;99.90;;;;;;4978751;28;20237;-56
2022/12/19 08:29:08;;;;;;;26.20;13.87;;;-0.40;99.90;;;;;;4978367;28;20205;-56
2022/12/19 08:31:33;;;;;;;22.70;12.53;;;-0.30;99.90;;;;;;4978975;28;20202;-56
2022/12/19 08:33:58;;;;;;;23.77;14.50;;;-0.30;99.90;;;;;;4978899;28;20213;-56
2022/12/19 08:36:25;;;;;;;20.70;12.37;;;-0.10;99.90;;;;;;4978224;28;20242;-56
2022/12/19 08:38:50;;;;;;;21.00;13.50;;;-0.10;99.90;;;;;;4978980;28;20289;-57
2022/12/19 08:41:17;;;;;;;24.67;14.73;;;-0.10;99.90;;;;;;4976814;28;20289;-57
2022/12/19 08:43:47;;;;;;;23.43;14.33;;;0.00;99.90;;;;;;4978858;28;20221;-57
2022/12/19 08:46:13;;;;;;;24.53;14.70;;;0.00;99.90;;;;;;4978167;28;20202;-57
2022/12/19 08:48:38;;;;;;;20.83;14.00;;;0.00;99.90;;;;;;4978499;28;20206;-57
2022/12/19 08:51:06;;;;;;;24.20;14.67;;;0.10;99.90;;;;;;4978493;28;20195;-57
2022/12/19 08:53:34;;;;;;;17.30;12.17;;;0.00;99.90;;;;;;4977533;28;20208;-56
2022/12/19 08:56:09;;;;;;;23.13;13.47;;;0.00;99.90;;;;;;4978501;28;20206;-57
2022/12/19 08:58:35;;;;;;;24.50;14.57;;;0.00;99.90;;;;;;4978514;28;20551;-58
2022/12/19 09:01:03;;;;;;;25.30;14.10;;;0.00;99.90;;;;;;4976170;28;20189;-57
2022/12/19 09:03:29;;;;;;;27.93;14.23;;;0.00;99.90;;;;;;4978510;28;20215;-57
2022/12/19 09:05:59;;;;;;;25.53;13.47;;;0.10;99.90;;;;;;4978529;28;20252;-56
2022/12/19 09:08:27;;;;;;;22.50;13.37;;;0.10;99.90;;;;;;4976402;28;20197;-56
2022/12/19 09:11:04;;;;;;;25.77;14.20;;;0.20;99.90;;;;;;4976428;28;20865;-57
2022/12/19 09:13:31;;;;;;;22.07;13.80;;;0.20;99.90;;;;;;4978185;28;20727;-57
2022/12/19 09:16:04;;;;;;;22.33;12.13;;;0.20;99.90;;;;;;4977949;28;20199;-58
2022/12/19 09:18:30;;;;;;;21.47;14.00;;;0.30;99.90;;;;;;4982241;28;20206;-58
2022/12/19 09:20:57;;;;;;;27.33;14.67;;;0.40;99.90;;;;;;4977559;28;20227;-57
2022/12/19 09:23:25;;;;;;;27.83;14.33;;;0.40;99.90;;;;;;4977338;28;20190;-57
2022/12/19 09:25:52;;;;;;;20.43;14.20;;;0.50;99.90;;;;;;4976159;28;20254;-57
2022/12/19 09:28:17;;;;;;;25.13;14.00;;;0.50;99.90;;;;;;4973009;28;20195;-57
2022/12/19 09:30:43;;;;;;;20.90;13.60;;;0.50;99.90;;;;;;4976826;28;20194;-57
2022/12/19 09:33:08;;;;;;;25.83;14.37;;;0.50;99.90;;;;;;4976983;28;20291;-56
2022/12/19 09:35:33;;;;;;;24.30;14.00;;;0.60;99.90;;;;;;4977313;28;20205;-59
2022/12/19 09:37:59;;;;;;;21.97;13.83;;;0.60;99.90;;;;;;4976917;28;20579;-57
2022/12/19 09:40:27;;;;;;;24.20;14.83;;;0.70;99.90;;;;;;4977211;28;20318;-57
2022/12/19 09:43:06;;;;;;;26.00;13.30;;;0.70;99.90;;;;;;4976720;28;20262;-57
2022/12/19 09:46:03;;;;;;;23.77;14.47;;;0.70;99.90;;;;;;4984432;28;20710;-57
2022/12/19 09:48:29;;;;;;;23.97;13.43;;;0.80;99.90;;;;;;4966663;28;20210;-57
2022/12/19 09:51:12;;;;;;;23.83;13.33;;;0.80;99.90;;;;;;4985718;28;20245;-57
2022/12/19 09:54:16;;;;;;;27.03;13.27;;;0.80;99.90;;;;;;4986286;28;20195;-57
2022/12/19 09:56:43;;;;;;;21.40;13.57;;;0.90;99.90;;;;;;4970893;28;20233;-56
2022/12/19 09:59:33;;;;;;;21.67;13.53;;;1.00;99.90;;;;;;4980323;28;20208;-58
2022/12/19 10:02:22;;;;;;;25.53;13.83;;;1.10;99.90;;;;;;4975131;28;20206;-57
2022/12/19 10:04:51;;;;;;;20.97;12.50;;;1.20;99.90;;;;;;4976364;28;20682;-56
2022/12/19 10:07:18;;;;;;;23.23;15.27;;;1.30;99.90;;;;;;4976588;28;20229;-57
2022/12/19 10:09:44;;;;;;;24.93;14.20;;;1.40;99.90;;;;;;4976362;28;20207;-58
2022/12/19 10:12:35;;;;;;;21.43;13.03;;;1.40;99.90;;;;;;4975285;28;20261;-57
2022/12/19 10:15:35;;;;;;;23.17;12.80;;;1.40;99.90;;;;;;4975382;28;20271;-56
2022/12/19 10:18:22;;;;;;;22.07;13.10;;;1.50;99.90;;;;;;4969886;28;20301;-57
2022/12/19 10:21:01;;;;;;;26.80;14.77;;;1.60;99.90;;;;;;4976034;28;20234;-58
2022/12/19 10:24:01;;;;;;;19.03;12.77;;;1.70;99.90;;;;;;4975122;28;20287;-58
2022/12/19 10:26:48;;;;;;;23.93;13.63;;;1.80;99.90;;;;;;4979099;28;20744;-59
2022/12/19 10:29:29;;;;;;;21.63;12.80;;;1.80;99.90;;;;;;4974913;28;20254;-57
2022/12/19 10:32:20;;;;;;;23.53;13.80;;;1.90;99.90;;;;;;4976326;28;20204;-58
2022/12/19 10:34:48;;;;;;;20.80;13.57;;;1.90;99.90;;;;;;4983822;28;20203;-58
2022/12/19 10:37:25;;;;;;;25.97;14.47;;;1.90;99.90;;;;;;4982188;28;20268;-56
2022/12/19 10:39:58;;;;;;;24.87;13.03;;;2.00;99.90;;;;;;4985862;28;20301;-56
2022/12/19 10:42:50;;;;;;;23.63;15.23;;;2.10;99.90;;;;;;4986145;28;20788;-57
2022/12/19 10:45:18;;;;;;;21.83;13.60;;;2.10;99.90;;;;;;4988301;28;20249;-61
2022/12/19 10:47:47;;;;;;;23.30;12.90;;;2.20;99.90;;;;;;4986455;28;20209;-61
2022/12/19 10:50:20;;;;;;;21.30;12.80;;;2.30;99.90;;;;;;4986690;28;20192;-61
2022/12/19 10:52:53;;;;;;;21.13;13.37;;;2.30;99.90;;;;;;4983951;28;20203;-61
2022/12/19 10:55:32;;;;;;;21.67;13.60;;;2.40;99.90;;;;;;4980464;28;20283;-61
2022/12/19 10:57:58;;;;;;;22.37;13.30;;;2.40;99.90;;;;;;4971374;28;20197;-62
2022/12/19 11:00:24;;;;;;;21.23;13.57;;;2.40;99.90;;;;;;4976321;28;20218;-61
2022/12/19 11:03:07;;;;;;;23.27;13.43;;;2.40;99.90;;;;;;4975730;28;20206;-62
2022/12/19 11:05:51;;;;;;;19.93;12.33;;;2.50;99.90;;;;;;4976137;28;20223;-61
2022/12/19 11:08:24;;;;;;;21.10;12.93;;;2.60;99.90;;;;;;4976145;28;20650;-62
2022/12/19 11:10:54;;;;;;;18.47;12.10;;;2.60;99.90;;;;;;4975908;28;20252;-65
2022/12/19 11:13:27;;;;;;;24.63;14.73;;;2.60;99.90;;;;;;4973779;28;20654;-62
2022/12/19 11:15:57;;;;;;;23.60;12.70;;;2.60;99.90;;;;;;4975562;28;20209;-61
2022/12/19 11:18:32;;;;;;;21.30;13.20;;;2.50;99.90;;;;;;4976144;28;20243;-62
2022/12/19 11:21:08;;;;;;;20.87;12.90;;;2.50;99.90;;;;;;4971525;28;20210;-62
2022/12/19 11:23:34;;;;;;;22.97;13.07;;;2.50;99.90;;;;;;4976327;28;20352;-61
2022/12/19 11:26:02;;;;;;;23.17;14.43;;;2.40;99.90;;;;;;4980081;28;20222;-62
2022/12/19 11:28:34;;;;;;;22.40;12.30;;;2.40;99.90;;;;;;4977365;28;20264;-71
2022/12/19 11:31:21;;;;;;;23.87;13.13;;;2.40;99.90;;;;;;4979556;28;20234;-63
2022/12/19 11:33:53;;;;;;;22.87;14.87;;;2.30;99.90;;;;;;4987629;28;20305;-63
2022/12/19 11:36:37;;;;;;;26.10;13.67;;;2.30;99.90;;;;;;4986309;28;20199;-63
2022/12/19 11:39:04;;;;;;;20.83;12.77;;;2.20;99.90;;;;;;4989510;28;20211;-65
2022/12/19 11:41:45;;;;;;;22.23;12.87;;;2.20;99.90;;;;;;4989207;28;20203;-64
2022/12/19 11:44:15;;;;;;;24.13;13.83;;;2.20;99.90;;;;;;4987023;28;20233;-65
2022/12/19 11:47:04;;;;;;;25.27;14.63;;;2.20;99.90;;;;;;4987029;28;20294;-63
2022/12/19 11:49:39;;;;;;;23.77;14.23;;;2.30;99.90;;;;;;4963009;28;20215;-61
2022/12/19 11:52:09;;;;;;;24.63;15.17;;;2.30;99.90;;;;;;4987160;28;20198;-62
2022/12/19 11:55:14;;;;;;;19.47;12.87;;;2.30;99.90;;;;;;4990544;28;20219;-63
2022/12/19 11:57:41;;;;;;;19.13;12.07;;;2.30;99.90;;;;;;4971096;28;20311;-63
2022/12/19 12:00:15;;;;;;;21.90;13.27;;;2.30;99.90;;;;;;4983867;28;20203;-61
2022/12/19 12:03:08;;;;;;;21.13;12.23;;;2.30;99.90;;;;;;4979314;28;20211;-63
2022/12/19 12:05:48;;;;;;;18.13;12.47;;;2.30;99.90;;;;;;4977457;28;20809;-64
2022/12/19 12:08:37;;;;;;;23.80;13.67;;;2.20;99.90;;;;;;4985944;28;20196;-63
2022/12/19 12:11:40;;;;;;;24.87;13.10;;;2.20;99.90;;;;;;4984022;28;21069;-65
2022/12/19 12:14:26;;;;;;;24.43;14.13;;;2.30;99.90;;;;;;4979384;28;20289;-64
2022/12/19 12:17:20;;;;;;;20.83;13.53;;;2.30;99.90;;;;;;4974614;28;20333;-65
2022/12/19 12:20:01;;;;;;;22.37;13.10;;;2.30;99.90;;;;;;4978027;28;20209;-63
2022/12/19 12:23:04;;;;;;;19.43;13.67;;;2.30;99.90;;;;;;4977621;28;20200;-63
2022/12/19 12:25:55;;;;;;;23.27;13.60;;;2.40;99.90;;;;;;4976859;28;20212;-64
2022/12/19 12:28:47;;;;;;;19.80;12.90;;;2.40;99.90;;;;;;4978271;28;20263;-66
2022/12/19 12:31:40;;;;;;;16.47;10.97;;;2.40;99.90;;;;;;4986084;28;20196;-62
2022/12/19 12:34:42;;;;;;;21.70;15.07;;;2.30;99.90;;;;;;4985587;28;20211;-61
2022/12/19 12:37:34;;;;;;;21.27;13.67;;;2.20;99.90;;;;;;4981967;28;20325;-63
2022/12/19 12:40:26;;;;;;;23.53;14.60;;;2.20;99.90;;;;;;4977103;28;20681;-62
2022/12/19 12:43:24;;;;;;;20.10;13.20;;;2.20;99.90;;;;;;4975713;28;20254;-65
2022/12/19 12:45:49;;;;;;;20.20;12.67;;;2.20;99.90;;;;;;4973932;28;20253;-64
2022/12/19 12:48:50;;;;;;;23.43;14.63;;;2.20;99.90;;;;;;4978317;28;20204;-62
2022/12/19 12:51:17;;;;;;;31.20;13.57;;;2.10;99.90;;;;;;4957009;28;20696;-66
2022/12/19 12:53:45;;;;;;;24.13;13.97;;;2.20;99.90;;;;;;4981501;28;20184;-63
2022/12/19 12:56:15;;;;;;;18.40;13.90;;;2.20;99.90;;;;;;4983246;28;20205;-66
2022/12/19 12:58:52;;;;;;;25.53;13.07;;;2.20;99.90;;;;;;4979815;28;20202;-64